Aérodrome :
LOGIN :

S'inscrire | Disclaimer

   EN    FR    IT 

 










Légende :    VFR   VFR Marginal   IFR   IFR Intensif   IFR Très Intensif
Visi : 
Plafond : 
>= 8 km
>= 3000ft
5 à 8 km
1000 à 3000 ft
1500m à 5 km
500 à 1000 ft
800 à 1500m
200 à 500 ft
< 800m
< 200 ft
Symboles :   Orages  Brouillard  Fortes neiges  Fortes précipitations  Vent > 20 kt
SIGMETs :   Divers  Orages  Givrage  Turbulence  Onde Orograph.  Cendres Volcan.






- Altitude de l'aérodrome : 291 ft
- Code IATA : ORY


LFPO - Paris-Orly

DERNIER METAR :
  • 172030Z 24010KT CAVOK 07/03 Q1023 NOSIG

METARs EXPIRÉS :
  • 172000Z 24010KT CAVOK 07/03 Q1023 NOSIG
  • 171930Z 24009KT 9999 FEW048 BKN064 BKN078 08/04 Q1022 NOSIG
  • 171900Z 26011KT 9999 FEW037 BKN056 BKN066 08/04 Q1022 NOSIG
  • 171830Z 25008KT 220V280 9999 FEW049 BKN066 BKN110 07/04 Q1022 NOSIG
  • 171811Z 27008KT 9999 FEW022 SCT040 07/04 Q1021 TEMPO 22020G35KT BKN025TCU
  • 171800Z ///05KT 9999 FEW022 SCT040 07/04 Q1021 TEMPO 22020G35KT BKN025TCU

TAF TAF LFPO
Valide du 17 à 18h jusqu'au 19 à 00h UTC


171700Z 1718/1824 22015G25KT 9999 SCT035
TEMPO 1718/1721 -SHRA BKN025TCU
PROB40
TEMPO 1718/1719 22020G35KT 3000 SHRA BKN025CB
BECMG 1721/1724 23010KT
BECMG 1810/1812 21015G25KT SCT025
TEMPO 1816/1819 -SHRA BKN030TCU
ATIS : +33 1 49 75 65 80



MET'MAP, la Météo Aéronautique d'un coup d'oeil ! - Copyright ORBIFLY Décembre 2007 - Disclaimer

ORBIFLY MET'MAP TEAM :

Programmation & Développement : Alexandra Zaïnal
Sur une idée originale de : Baudouin d'Aumeries
Assistance à la programmation : Marc-Olivier Méhu
Soutien technique & logistique : Manuel Goepfert

Contact : metmap@orbifly.com




SOURCES & CREDITS :

   NOAA